Terminal Aerodrome Forecast
Issued by NWS

Home | Current Version | Previous Version | Text Only | Print | Product List | Glossary On
Versions: 1 2 3 4 5 6 7 8 9 10 11 12 13 14
000
FTUS45 KGJT 161140
TAFVEL
TAF
KVEL 161140Z 1612/1712 30004KT P6SM FEW250
     FM161400 08005KT P6SM FEW200
     FM161500 15005KT P6SM FEW200
     FM170000 32006KT P6SM SCT200
     FM170200 33006KT P6SM SCT200=

USA.gov is the U.S. government's official web portal to all federal, state and local government web resources and services.